Time;durP1;ratioP1;P1;durP2;ratioP2;P2;SDS_P1;SDS_P2;PMS_P1;PMS_P2;Temp;Humidity;BMP_temperature;BMP_pressure;BME280_temperature;BME280_humidity;BME280_pressure;Samples;Min_cycle;Max_cycle;Signal;HPM_P1;HPM_P2
2023/05/09 00:02:08;;;;;;;13.30;12.07;;;12.60;53.50;;;;;;5012286;28;20324;-87
2023/05/09 00:04:34;;;;;;;12.70;11.70;;;12.50;53.90;;;;;;5012269;28;20184;-87
2023/05/09 00:07:00;;;;;;;15.13;11.47;;;12.50;54.00;;;;;;5013422;28;20177;-86
2023/05/09 00:09:26;;;;;;;12.40;11.60;;;12.40;54.50;;;;;;5013653;28;20317;-87
2023/05/09 00:11:51;;;;;;;13.33;12.03;;;12.40;54.50;;;;;;5013283;28;20287;-87
2023/05/09 00:14:17;;;;;;;12.90;11.90;;;12.40;54.90;;;;;;5012120;28;20181;-88
2023/05/09 00:16:43;;;;;;;13.17;11.90;;;12.30;54.90;;;;;;5012518;28;20177;-88
2023/05/09 00:19:09;;;;;;;12.70;11.80;;;12.20;54.90;;;;;;5012287;28;20190;-88
2023/05/09 00:21:35;;;;;;;13.93;12.63;;;12.30;54.80;;;;;;5012031;28;20201;-89
2023/05/09 00:24:00;;;;;;;17.73;12.20;;;12.30;54.80;;;;;;5013441;28;20547;-88
2023/05/09 00:26:26;;;;;;;19.67;11.87;;;12.20;55.10;;;;;;5012044;28;20177;-88
2023/05/09 00:28:52;;;;;;;13.03;11.73;;;12.20;54.70;;;;;;5011962;28;20228;-87
2023/05/09 00:31:18;;;;;;;12.67;11.37;;;12.20;54.90;;;;;;5013131;28;20271;-86
2023/05/09 00:33:44;;;;;;;13.40;12.20;;;12.20;54.60;;;;;;5011875;28;20553;-86
2023/05/09 00:36:09;;;;;;;13.13;11.93;;;12.20;54.60;;;;;;5013188;28;20165;-86
2023/05/09 00:38:35;;;;;;;13.27;12.07;;;12.20;54.60;;;;;;5013261;28;20177;-86
2023/05/09 00:41:00;;;;;;;13.70;12.30;;;12.20;54.80;;;;;;5011910;28;20197;-85
2023/05/09 00:43:26;;;;;;;17.53;16.00;;;12.20;54.90;;;;;;5013073;28;20547;-86
2023/05/09 00:45:52;;;;;;;21.77;20.33;;;12.20;54.90;;;;;;5012186;28;20181;-86
2023/05/09 00:48:17;;;;;;;22.40;20.90;;;12.10;54.90;;;;;;5014060;28;20204;-87
2023/05/09 00:50:43;;;;;;;22.00;20.17;;;12.10;55.20;;;;;;5015784;28;20204;-87
2023/05/09 00:53:09;;;;;;;21.03;19.47;;;12.00;55.50;;;;;;5016091;28;20292;-87
2023/05/09 00:55:35;;;;;;;21.27;19.67;;;12.00;55.40;;;;;;5014569;28;20220;-86
2023/05/09 00:58:02;;;;;;;21.33;19.67;;;12.00;55.70;;;;;;5013388;28;20178;-87
2023/05/09 01:00:28;;;;;;;22.27;20.77;;;12.00;55.90;;;;;;5013294;28;20201;-87
2023/05/09 01:02:54;;;;;;;22.57;21.07;;;11.90;56.00;;;;;;5014172;28;20553;-86
2023/05/09 01:05:28;;;;;;;21.33;19.93;;;12.00;55.80;;;;;;5011914;28;20203;-87
2023/05/09 01:07:59;;;;;;;22.20;20.30;;;11.90;55.90;;;;;;5013583;28;20177;-87
2023/05/09 01:10:42;;;;;;;20.23;18.53;;;11.90;56.20;;;;;;5011857;28;20237;-86
2023/05/09 01:13:19;;;;;;;22.17;20.07;;;11.80;56.30;;;;;;5015268;28;20205;-87
2023/05/09 01:15:53;;;;;;;22.60;21.00;;;11.80;56.40;;;;;;5015652;28;20173;-87
2023/05/09 01:18:32;;;;;;;22.33;20.73;;;11.80;56.50;;;;;;5017121;28;20165;-87
2023/05/09 01:21:15;;;;;;;22.13;20.40;;;11.80;56.70;;;;;;5015567;28;20232;-86
2023/05/09 01:23:44;;;;;;;22.60;20.90;;;11.80;56.80;;;;;;5016645;28;20172;-86
2023/05/09 01:26:12;;;;;;;21.23;19.63;;;11.70;56.80;;;;;;5015113;28;20276;-86
2023/05/09 01:29:16;;;;;;;22.20;19.97;;;11.70;56.80;;;;;;5014971;28;20170;-86
2023/05/09 01:31:44;;;;;;;22.63;20.83;;;11.70;56.50;;;;;;5015598;28;20204;-87
2023/05/09 01:34:11;;;;;;;22.60;21.00;;;11.70;57.00;;;;;;5017108;28;20169;-86
2023/05/09 01:36:41;;;;;;;13.03;12.03;;;11.60;57.50;;;;;;5015759;28;20173;-87
2023/05/09 01:39:11;;;;;;;13.50;12.17;;;11.60;57.70;;;;;;5015550;28;20223;-86
2023/05/09 01:41:37;;;;;;;12.53;11.37;;;11.50;57.80;;;;;;5015310;28;20282;-87
2023/05/09 01:44:05;;;;;;;13.27;12.00;;;11.50;58.00;;;;;;5015329;28;20189;-86
2023/05/09 01:46:32;;;;;;;13.00;12.10;;;11.50;57.80;;;;;;5017104;28;20177;-86
2023/05/09 01:48:59;;;;;;;13.43;12.23;;;11.40;57.70;;;;;;5015050;28;20197;-87
2023/05/09 01:51:26;;;;;;;13.73;12.33;;;11.50;58.10;;;;;;5015344;28;20207;-86
2023/05/09 01:53:54;;;;;;;13.67;11.77;;;11.50;58.50;;;;;;5015334;28;20272;-86
2023/05/09 01:56:21;;;;;;;13.13;12.07;;;11.40;58.90;;;;;;5014747;28;20265;-86
2023/05/09 01:58:48;;;;;;;14.37;11.50;;;11.40;59.20;;;;;;5015115;28;20177;-86
2023/05/09 02:01:14;;;;;;;12.90;12.00;;;11.40;59.30;;;;;;5016372;28;20657;-86
2023/05/09 02:03:43;;;;;;;13.10;11.93;;;11.30;59.50;;;;;;5016490;28;20178;-86
2023/05/09 02:06:10;;;;;;;12.97;11.90;;;11.30;60.10;;;;;;5016481;28;20189;-87
2023/05/09 02:08:36;;;;;;;13.23;12.20;;;11.30;60.00;;;;;;5015967;28;20200;-86
2023/05/09 02:11:01;;;;;;;13.13;12.20;;;11.30;60.10;;;;;;5014895;28;20193;-87
2023/05/09 02:13:27;;;;;;;13.33;12.13;;;11.30;60.40;;;;;;5014768;28;20278;-87
2023/05/09 02:15:54;;;;;;;12.87;11.97;;;11.30;60.10;;;;;;5016243;28;20554;-86
2023/05/09 02:18:19;;;;;;;21.33;19.97;;;11.30;60.10;;;;;;5015748;28;20170;-86
2023/05/09 02:20:45;;;;;;;20.80;19.20;;;11.30;60.00;;;;;;5015938;28;20289;-86
2023/05/09 02:23:11;;;;;;;24.90;21.27;;;11.30;60.10;;;;;;5013728;28;20181;-87
2023/05/09 02:25:39;;;;;;;23.63;21.60;;;11.30;60.30;;;;;;5015987;28;20268;-87
2023/05/09 02:28:05;;;;;;;23.57;21.23;;;11.20;60.40;;;;;;5014682;28;20187;-87
2023/05/09 02:30:37;;;;;;;20.63;18.97;;;11.20;60.20;;;;;;5015581;28;20193;-86
2023/05/09 02:33:07;;;;;;;22.20;20.80;;;11.20;60.20;;;;;;5013749;28;20296;-86
2023/05/09 02:35:34;;;;;;;22.33;20.80;;;11.30;60.10;;;;;;5015205;28;20178;-87
2023/05/09 02:37:59;;;;;;;22.53;20.73;;;11.30;60.20;;;;;;5013743;28;20184;-86
2023/05/09 02:40:28;;;;;;;23.27;21.47;;;11.20;60.20;;;;;;5013744;28;20204;-86
2023/05/09 02:42:53;;;;;;;22.90;21.10;;;11.20;60.40;;;;;;5013595;28;20197;-86
2023/05/09 02:45:19;;;;;;;22.80;20.87;;;11.20;60.60;;;;;;5015704;28;20189;-86
2023/05/09 02:47:44;;;;;;;23.23;20.17;;;11.10;60.60;;;;;;5014848;28;20665;-87
2023/05/09 02:50:11;;;;;;;22.77;20.63;;;11.10;60.50;;;;;;5014653;28;20258;-86
2023/05/09 02:52:36;;;;;;;22.43;21.03;;;11.10;60.90;;;;;;5013384;28;20209;-86
2023/05/09 02:55:02;;;;;;;24.33;22.13;;;11.10;61.20;;;;;;5013545;28;20655;-86
2023/05/09 02:57:28;;;;;;;21.73;20.17;;;11.00;61.20;;;;;;5013393;28;20181;-87
2023/05/09 02:59:53;;;;;;;24.50;22.30;;;11.00;61.40;;;;;;5014346;28;20177;-85
2023/05/09 03:02:19;;;;;;;22.60;20.90;;;11.00;61.50;;;;;;5013231;28;20185;-86
2023/05/09 03:04:45;;;;;;;23.90;21.90;;;11.00;61.60;;;;;;5014890;28;20188;-87
2023/05/09 03:07:10;;;;;;;24.17;22.00;;;11.00;61.70;;;;;;5014488;28;20223;-86
2023/05/09 03:09:36;;;;;;;23.43;21.60;;;11.00;61.80;;;;;;5014598;28;20174;-86
2023/05/09 03:12:02;;;;;;;22.97;21.13;;;10.90;62.10;;;;;;5012880;28;20762;-86
2023/05/09 03:14:28;;;;;;;23.83;21.70;;;10.90;62.30;;;;;;5013202;28;20253;-86
2023/05/09 03:16:53;;;;;;;23.53;21.73;;;10.90;62.60;;;;;;5014595;28;20272;-86
2023/05/09 03:19:19;;;;;;;24.07;22.20;;;10.90;62.80;;;;;;5014300;28;20256;-86
2023/05/09 03:21:44;;;;;;;23.30;21.70;;;10.80;63.20;;;;;;5012955;28;20679;-86
2023/05/09 03:24:10;;;;;;;23.90;22.10;;;10.80;63.30;;;;;;5012918;28;20168;-87
2023/05/09 03:26:36;;;;;;;24.27;22.10;;;10.80;63.20;;;;;;5013093;28;20170;-86
2023/05/09 03:29:02;;;;;;;14.63;12.90;;;10.80;63.80;;;;;;5014349;28;20169;-86
2023/05/09 03:31:27;;;;;;;15.80;12.47;;;10.80;64.20;;;;;;5013466;28;20713;-87
2023/05/09 03:33:53;;;;;;;13.97;12.60;;;10.80;64.10;;;;;;5013035;28;20169;-86
2023/05/09 03:36:19;;;;;;;13.77;12.40;;;10.70;64.30;;;;;;5013823;28;20235;-86
2023/05/09 03:38:44;;;;;;;13.50;12.10;;;10.70;64.40;;;;;;5015080;28;20196;-86
2023/05/09 03:41:12;;;;;;;13.70;12.40;;;10.80;64.60;;;;;;5014933;28;20185;-86
2023/05/09 03:43:38;;;;;;;14.17;12.63;;;10.90;64.30;;;;;;5013638;28;20177;-87
2023/05/09 03:46:03;;;;;;;14.20;12.47;;;11.10;63.70;;;;;;5013798;28;20713;-86
2023/05/09 03:48:29;;;;;;;14.03;12.93;;;11.20;63.00;;;;;;5013686;28;20197;-86
2023/05/09 03:50:54;;;;;;;14.43;12.93;;;11.20;63.10;;;;;;5015062;28;20197;-86
2023/05/09 03:53:20;;;;;;;13.90;12.60;;;11.10;63.40;;;;;;5014021;28;20205;-86
2023/05/09 03:55:45;;;;;;;14.03;12.93;;;10.90;63.80;;;;;;5013605;28;20173;-86
2023/05/09 03:58:11;;;;;;;16.03;13.70;;;10.80;64.60;;;;;;5015185;28;20189;-86
2023/05/09 04:00:37;;;;;;;15.53;13.93;;;10.70;65.00;;;;;;5013749;28;20197;-86
2023/05/09 04:03:03;;;;;;;15.43;14.03;;;10.60;65.60;;;;;;5013721;28;20185;-86
2023/05/09 04:05:29;;;;;;;17.33;14.17;;;10.50;65.70;;;;;;5015119;28;20192;-86
2023/05/09 04:07:54;;;;;;;15.07;13.97;;;10.40;65.90;;;;;;5015216;28;20173;-86
2023/05/09 04:10:20;;;;;;;24.13;22.43;;;10.40;65.80;;;;;;5014675;28;20216;-86
2023/05/09 04:12:45;;;;;;;25.10;23.10;;;10.50;65.90;;;;;;5015403;28;20205;-87
2023/05/09 04:15:11;;;;;;;23.50;21.70;;;10.40;65.50;;;;;;5013895;28;20191;-86
2023/05/09 04:17:36;;;;;;;24.93;23.13;;;10.40;65.40;;;;;;5014658;28;20599;-86
2023/05/09 04:20:02;;;;;;;25.43;23.50;;;10.50;66.10;;;;;;5013179;28;20181;-86
2023/05/09 04:22:28;;;;;;;24.90;22.73;;;10.50;66.50;;;;;;5013415;28;20718;-86
2023/05/09 04:24:53;;;;;;;25.97;23.77;;;10.40;66.40;;;;;;5013406;28;20563;-86
2023/05/09 04:27:19;;;;;;;25.33;23.53;;;10.40;66.50;;;;;;5014476;28;20208;-86
2023/05/09 04:29:45;;;;;;;24.60;22.90;;;10.40;66.40;;;;;;5014314;28;20232;-87
2023/05/09 04:32:10;;;;;;;24.73;22.77;;;10.50;66.70;;;;;;5013631;28;20279;-87
2023/05/09 04:34:36;;;;;;;23.90;22.07;;;10.50;66.70;;;;;;5013454;28;20170;-86
2023/05/09 04:37:01;;;;;;;25.40;23.03;;;10.60;66.10;;;;;;5013708;28;20599;-86
2023/05/09 04:39:27;;;;;;;25.73;23.07;;;10.60;66.10;;;;;;5011991;28;20177;-86
2023/05/09 04:41:52;;;;;;;24.63;22.37;;;10.70;65.90;;;;;;5012260;28;20220;-86
2023/05/09 04:44:18;;;;;;;24.43;22.50;;;10.80;66.00;;;;;;5013449;28;20334;-86
2023/05/09 04:46:44;;;;;;;23.97;22.00;;;10.90;66.00;;;;;;5014392;28;20186;-87
2023/05/09 04:49:09;;;;;;;23.33;21.77;;;10.90;66.00;;;;;;5017201;28;20671;-86
2023/05/09 04:51:35;;;;;;;22.27;20.57;;;10.90;66.10;;;;;;5015746;28;20276;-86
2023/05/09 04:54:00;;;;;;;22.37;20.47;;;11.00;66.10;;;;;;5015749;28;20177;-86
2023/05/09 04:56:26;;;;;;;21.57;19.93;;;11.00;66.10;;;;;;5015763;28;20192;-86
2023/05/09 04:58:52;;;;;;;22.90;20.80;;;11.00;66.40;;;;;;5017021;28;20180;-86
2023/05/09 05:01:17;;;;;;;23.83;21.93;;;11.00;66.50;;;;;;5015660;28;20316;-86
2023/05/09 05:03:43;;;;;;;25.07;22.93;;;11.00;66.50;;;;;;5015548;28;20181;-86
2023/05/09 05:06:09;;;;;;;22.53;20.90;;;11.00;66.40;;;;;;5015637;28;20190;-86
2023/05/09 05:08:34;;;;;;;25.23;23.30;;;11.00;66.20;;;;;;5016685;28;20200;-86
2023/05/09 05:11:00;;;;;;;25.70;23.43;;;11.10;66.70;;;;;;5016773;28;20190;-86
2023/05/09 05:13:25;;;;;;;26.23;24.00;;;11.10;66.60;;;;;;5016977;28;20240;-86
2023/05/09 05:15:51;;;;;;;25.23;22.97;;;11.20;66.80;;;;;;5016893;28;20261;-86
2023/05/09 05:18:17;;;;;;;25.10;23.00;;;11.20;66.50;;;;;;5016710;28;20189;-86
2023/05/09 05:20:42;;;;;;;25.30;22.87;;;11.20;66.20;;;;;;5016535;28;20240;-86
2023/05/09 05:23:09;;;;;;;24.30;22.53;;;11.20;66.20;;;;;;5015210;28;20189;-86
2023/05/09 05:25:34;;;;;;;24.30;22.50;;;11.20;65.40;;;;;;5015194;28;20200;-86
2023/05/09 05:28:00;;;;;;;15.83;14.63;;;11.30;66.30;;;;;;5016288;28;20199;-86
2023/05/09 05:30:25;;;;;;;15.97;14.63;;;11.30;66.80;;;;;;5015646;28;20197;-86
2023/05/09 05:32:51;;;;;;;16.50;15.30;;;11.40;66.70;;;;;;5016369;28;20231;-86
2023/05/09 05:35:17;;;;;;;16.97;15.57;;;11.50;66.80;;;;;;5016067;28;20177;-87
2023/05/09 05:37:43;;;;;;;16.83;14.93;;;11.50;66.30;;;;;;5017046;28;20515;-86
2023/05/09 05:40:09;;;;;;;16.70;15.30;;;11.50;66.90;;;;;;5017179;28;20190;-86
2023/05/09 05:42:34;;;;;;;16.07;14.83;;;11.60;66.70;;;;;;5017060;28;20231;-86
2023/05/09 05:45:03;;;;;;;15.80;14.40;;;11.70;66.20;;;;;;5015913;28;20592;-87
2023/05/09 05:47:33;;;;;;;15.27;14.17;;;11.70;65.90;;;;;;5017559;28;20265;-86
2023/05/09 05:49:59;;;;;;;15.77;14.13;;;11.80;66.10;;;;;;5016873;28;20208;-86
2023/05/09 05:52:26;;;;;;;16.20;14.63;;;11.90;65.70;;;;;;5017204;28;20578;-87
2023/05/09 05:54:52;;;;;;;16.33;14.70;;;11.90;65.70;;;;;;5017086;28;20280;-87
2023/05/09 05:57:17;;;;;;;16.10;14.80;;;11.90;65.10;;;;;;5014954;28;20193;-86
2023/05/09 05:59:43;;;;;;;16.50;14.37;;;12.00;65.50;;;;;;5015838;28;20177;-86
2023/05/09 06:02:08;;;;;;;24.27;22.20;;;12.10;64.70;;;;;;5015289;28;20300;-87
2023/05/09 06:04:34;;;;;;;25.43;23.03;;;12.10;64.60;;;;;;5016443;28;20177;-87
2023/05/09 06:06:59;;;;;;;24.17;22.20;;;12.20;65.10;;;;;;5015755;28;20211;-87
2023/05/09 06:09:25;;;;;;;24.33;22.43;;;12.30;64.20;;;;;;5015420;28;20173;-87
2023/05/09 06:11:51;;;;;;;23.13;20.93;;;12.30;63.90;;;;;;5014870;28;20209;-87
2023/05/09 06:14:16;;;;;;;28.87;21.60;;;12.40;64.20;;;;;;5015967;28;20204;-87
2023/05/09 06:16:42;;;;;;;22.33;19.87;;;12.40;64.10;;;;;;5015770;28;20270;-87
2023/05/09 06:19:07;;;;;;;24.17;21.67;;;12.50;64.20;;;;;;5015228;28;20179;-87
2023/05/09 06:21:33;;;;;;;23.10;21.50;;;12.50;64.20;;;;;;5017568;28;20271;-85
2023/05/09 06:23:58;;;;;;;23.93;21.90;;;12.60;64.20;;;;;;5017459;28;20243;-86
2023/05/09 06:26:25;;;;;;;26.90;21.93;;;12.70;64.10;;;;;;5016495;28;20644;-86
2023/05/09 06:28:50;;;;;;;24.23;22.03;;;12.80;64.40;;;;;;5016363;28;20169;-86
2023/05/09 06:31:16;;;;;;;24.00;21.63;;;12.80;64.30;;;;;;5015175;28;20584;-86
2023/05/09 06:33:41;;;;;;;26.03;22.43;;;12.90;63.30;;;;;;5014408;28;20684;-85
2023/05/09 06:36:07;;;;;;;21.90;20.30;;;13.00;64.30;;;;;;5013854;28;20272;-86
2023/05/09 06:38:33;;;;;;;23.67;21.90;;;13.10;63.70;;;;;;5013919;28;20203;-88
2023/05/09 06:40:59;;;;;;;23.17;21.47;;;13.00;63.40;;;;;;5014843;28;20252;-88
2023/05/09 06:43:25;;;;;;;23.73;21.60;;;13.20;63.50;;;;;;5014787;28;20173;-87
2023/05/09 06:45:50;;;;;;;25.60;21.83;;;13.40;63.40;;;;;;5014412;28;20651;-87
2023/05/09 06:48:17;;;;;;;24.90;22.47;;;13.40;62.60;;;;;;5013464;28;20239;-86
2023/05/09 06:50:42;;;;;;;24.37;22.40;;;13.50;63.30;;;;;;5014933;28;20292;-86
2023/05/09 06:53:08;;;;;;;23.10;21.20;;;13.60;62.50;;;;;;5014447;28;20281;-87
2023/05/09 06:55:33;;;;;;;21.57;20.00;;;13.60;62.10;;;;;;5013272;28;20177;-86
2023/05/09 06:57:59;;;;;;;23.10;21.40;;;13.80;62.50;;;;;;5013190;28;20188;-86
2023/05/09 07:00:24;;;;;;;23.33;21.37;;;13.80;61.70;;;;;;5013202;28;20236;-87
2023/05/09 07:02:50;;;;;;;22.87;21.20;;;13.80;62.20;;;;;;5014913;28;20177;-86
2023/05/09 07:05:16;;;;;;;22.33;20.50;;;13.90;62.10;;;;;;5013309;28;20682;-87
2023/05/09 07:07:41;;;;;;;23.70;21.80;;;14.00;62.40;;;;;;5013128;28;20566;-86
2023/05/09 07:10:08;;;;;;;24.00;21.57;;;14.20;62.20;;;;;;5012685;28;20182;-86
2023/05/09 07:12:33;;;;;;;24.27;22.10;;;14.30;62.40;;;;;;5012896;28;20201;-86
2023/05/09 07:14:59;;;;;;;15.50;14.07;;;14.40;61.90;;;;;;5014556;28;20203;-86
2023/05/09 07:17:24;;;;;;;17.80;15.33;;;14.50;62.60;;;;;;5013119;28;20177;-86
2023/05/09 07:19:50;;;;;;;16.17;14.80;;;14.60;62.70;;;;;;5012901;28;20176;-85
2023/05/09 07:22:16;;;;;;;17.23;15.70;;;14.70;61.60;;;;;;5014009;28;20237;-86
2023/05/09 07:24:43;;;;;;;15.47;14.17;;;14.80;62.70;;;;;;5012713;28;20185;-86
2023/05/09 07:27:08;;;;;;;15.15;13.98;;;14.90;60.40;;;;;;5014097;28;20223;-86
2023/05/09 07:29:34;;;;;;;17.63;14.20;;;14.90;59.30;;;;;;5012716;28;20651;-86
2023/05/09 07:32:00;;;;;;;14.40;13.13;;;15.00;60.10;;;;;;5012670;28;20209;-87
2023/05/09 07:34:25;;;;;;;16.42;14.75;;;15.00;60.60;;;;;;5012741;28;20181;-86
2023/05/09 07:36:51;;;;;;;16.98;14.77;;;14.90;61.10;;;;;;5012958;28;20177;-87
2023/05/09 07:39:16;;;;;;;16.55;14.20;;;15.10;59.30;;;;;;5013912;28;20528;-86
2023/05/09 07:41:42;;;;;;;14.25;13.15;;;14.80;60.00;;;;;;5012683;28;20189;-87
2023/05/09 07:44:08;;;;;;;21.60;19.67;;;14.80;60.90;;;;;;5014049;28;20178;-86
2023/05/09 07:46:36;;;;;;;21.50;19.35;;;15.20;62.10;;;;;;5012612;28;20181;-87
2023/05/09 07:49:02;;;;;;;21.52;19.77;;;15.30;61.20;;;;;;5012392;28;20192;-87
2023/05/09 07:51:27;;;;;;;21.20;19.60;;;15.50;61.00;;;;;;5013545;28;20690;-87
2023/05/09 07:53:55;;;;;;;20.77;19.23;;;15.60;59.60;;;;;;5012474;28;20224;-87
2023/05/09 07:56:21;;;;;;;27.05;19.38;;;15.60;59.70;;;;;;5012414;28;20184;-87
2023/05/09 07:58:47;;;;;;;21.58;19.83;;;15.60;60.80;;;;;;5012298;28;20178;-86
2023/05/09 08:01:12;;;;;;;21.95;19.77;;;15.80;61.30;;;;;;5013500;28;20562;-86
2023/05/09 08:03:38;;;;;;;21.10;19.52;;;15.50;59.00;;;;;;5013563;28;20177;-87
2023/05/09 08:06:03;;;;;;;20.83;19.13;;;15.30;60.00;;;;;;5013491;28;20170;-87
2023/05/09 08:08:29;;;;;;;22.63;20.90;;;15.30;61.80;;;;;;5013872;28;20596;-87
2023/05/09 08:10:55;;;;;;;23.40;21.60;;;15.20;61.00;;;;;;5012197;28;20220;-87
2023/05/09 08:13:21;;;;;;;22.70;20.85;;;15.10;59.90;;;;;;5012112;28;20328;-86
2023/05/09 08:15:47;;;;;;;23.77;21.80;;;15.20;61.80;;;;;;5013307;28;20165;-87
2023/05/09 08:18:13;;;;;;;22.27;20.52;;;15.30;61.80;;;;;;5013362;28;20234;-86
2023/05/09 08:20:39;;;;;;;23.17;21.05;;;15.50;60.70;;;;;;5014238;28;20189;-87
2023/05/09 08:23:04;;;;;;;21.63;19.05;;;15.70;61.80;;;;;;5016335;28;20185;-88
2023/05/09 08:25:30;;;;;;;22.00;20.30;;;16.00;62.40;;;;;;5017223;28;20205;-86
2023/05/09 08:27:55;;;;;;;21.83;20.08;;;16.20;61.50;;;;;;5016491;28;20177;-86
2023/05/09 08:30:21;;;;;;;19.13;17.23;;;16.50;61.50;;;;;;5017325;28;20204;-86
2023/05/09 08:32:47;;;;;;;22.63;20.73;;;16.50;59.40;;;;;;5016261;28;20201;-84
2023/05/09 08:35:12;;;;;;;22.15;20.23;;;16.60;59.90;;;;;;5015934;28;20208;-86
2023/05/09 08:37:38;;;;;;;23.10;20.95;;;16.80;58.80;;;;;;5015900;28;20627;-85
2023/05/09 08:40:07;;;;;;;22.88;20.13;;;16.70;59.80;;;;;;5015935;28;20185;-85
2023/05/09 08:42:35;;;;;;;23.50;21.27;;;16.90;59.00;;;;;;5017463;28;20184;-86
2023/05/09 08:45:08;;;;;;;22.27;20.27;;;17.00;57.90;;;;;;5015616;28;20173;-87
2023/05/09 08:47:36;;;;;;;21.75;20.05;;;17.20;57.90;;;;;;5015626;28;20219;-86
2023/05/09 08:50:03;;;;;;;22.95;21.00;;;17.20;56.70;;;;;;5015397;28;20197;-87
2023/05/09 08:52:32;;;;;;;20.92;19.42;;;17.50;58.30;;;;;;5015546;28;20241;-86
2023/05/09 08:54:59;;;;;;;22.33;20.38;;;17.60;56.70;;;;;;5015525;28;20173;-89
2023/05/09 08:57:28;;;;;;;15.45;14.20;;;17.70;58.10;;;;;;5016735;28;20244;-88
2023/05/09 08:59:55;;;;;;;16.58;14.93;;;17.70;57.90;;;;;;5015329;28;20208;-88
2023/05/09 09:02:21;;;;;;;18.13;16.35;;;17.90;56.60;;;;;;5015458;28;20264;-88
2023/05/09 09:04:46;;;;;;;16.15;14.65;;;18.00;56.70;;;;;;5015325;28;20204;-89
2023/05/09 09:07:14;;;;;;;17.17;15.55;;;18.10;55.90;;;;;;5015560;28;20659;-89
2023/05/09 09:09:44;;;;;;;16.38;14.88;;;18.20;57.10;;;;;;5015230;28;20647;-89
2023/05/09 09:12:11;;;;;;;17.35;15.70;;;18.20;55.60;;;;;;5015043;28;20213;-89
2023/05/09 09:14:38;;;;;;;16.80;15.00;;;18.20;55.20;;;;;;5016386;28;20195;-88
2023/05/09 09:17:06;;;;;;;17.52;15.57;;;18.30;55.10;;;;;;5015321;28;20173;-89
2023/05/09 09:19:34;;;;;;;16.50;15.20;;;18.30;56.60;;;;;;5015511;28;20181;-89
2023/05/09 09:22:03;;;;;;;16.65;15.10;;;18.50;57.00;;;;;;5015630;28;20208;-88
2023/05/09 09:24:30;;;;;;;16.25;14.73;;;18.60;55.80;;;;;;5015080;28;20173;-85
2023/05/09 09:26:55;;;;;;;22.63;20.92;;;18.70;55.30;;;;;;5016672;28;20173;-85
2023/05/09 09:29:22;;;;;;;23.48;21.48;;;18.70;55.60;;;;;;5014811;28;20276;-86
2023/05/09 09:31:52;;;;;;;23.40;21.73;;;18.90;54.00;;;;;;5014718;28;20248;-87
2023/05/09 09:34:22;;;;;;;22.98;21.05;;;19.20;56.30;;;;;;5016115;28;20173;-88
2023/05/09 09:36:48;;;;;;;16.92;15.43;;;19.30;54.10;;;;;;5014689;28;20169;-88
2023/05/09 09:39:14;;;;;;;15.85;14.60;;;19.40;53.80;;;;;;5014738;28;20173;-88
2023/05/09 09:41:40;;;;;;;17.73;15.85;;;19.50;53.80;;;;;;5017715;28;20209;-88
2023/05/09 09:44:10;;;;;;;16.23;14.77;;;19.70;54.10;;;;;;5014637;28;20184;-88
2023/05/09 09:46:47;;;;;;;16.90;15.13;;;19.80;52.80;;;;;;5014615;28;20166;-88
2023/05/09 09:49:13;;;;;;;16.15;14.68;;;20.00;52.50;;;;;;5014331;28;20197;-88
2023/05/09 09:51:43;;;;;;;17.38;14.55;;;20.00;51.60;;;;;;5015483;28;20287;-88
2023/05/09 09:54:10;;;;;;;16.95;15.75;;;20.00;51.80;;;;;;5014314;28;20169;-88
2023/05/09 09:56:56;;;;;;;15.82;14.25;;;20.00;52.10;;;;;;5014373;28;20209;-88
2023/05/09 09:59:24;;;;;;;15.40;14.20;;;20.10;51.90;;;;;;5014928;28;20208;-88
2023/05/09 10:01:59;;;;;;;14.63;13.40;;;20.00;49.60;;;;;;5014151;28;20209;-88
2023/05/09 10:04:30;;;;;;;15.98;14.38;;;20.10;51.10;;;;;;5015435;28;20176;-89
2023/05/09 10:07:02;;;;;;;15.75;14.48;;;20.20;50.90;;;;;;5014320;28;20165;-88
2023/05/09 10:09:28;;;;;;;18.15;15.88;;;20.30;50.40;;;;;;5014282;28;20223;-88
2023/05/09 10:12:00;;;;;;;17.00;15.23;;;20.40;50.40;;;;;;5013923;28;20205;-88
2023/05/09 10:14:28;;;;;;;16.75;15.43;;;20.60;50.10;;;;;;5014023;28;20703;-86
2023/05/09 10:16:57;;;;;;;17.65;16.00;;;20.60;47.60;;;;;;5014076;28;20195;-87
2023/05/09 10:19:25;;;;;;;16.85;15.43;;;20.70;48.20;;;;;;5015193;28;20308;-88
2023/05/09 10:21:56;;;;;;;15.93;14.73;;;20.80;47.80;;;;;;5013917;28;20197;-88
2023/05/09 10:24:46;;;;;;;16.67;15.48;;;21.10;48.30;;;;;;5014136;28;20564;-87
2023/05/09 10:27:13;;;;;;;15.88;14.80;;;21.10;47.10;;;;;;5015022;28;20193;-88
2023/05/09 10:29:55;;;;;;;16.52;15.18;;;21.20;47.90;;;;;;5013836;28;20726;-87
2023/05/09 10:32:30;;;;;;;22.00;20.50;;;21.20;48.50;;;;;;5014981;28;20196;-89
2023/05/09 10:35:04;;;;;;;21.50;19.75;;;21.20;48.60;;;;;;5014924;28;20183;-88
2023/05/09 10:37:30;;;;;;;22.02;20.50;;;21.30;47.90;;;;;;5013716;28;20650;-88
2023/05/09 10:39:56;;;;;;;21.58;19.60;;;21.10;47.00;;;;;;5013610;28;20561;-88
2023/05/09 10:42:25;;;;;;;21.50;19.70;;;20.90;48.00;;;;;;5015195;28;20711;-86
2023/05/09 10:44:52;;;;;;;22.02;20.27;;;21.20;45.90;;;;;;5014419;28;20188;-87
2023/05/09 10:47:19;;;;;;;20.83;19.40;;;20.90;45.20;;;;;;5013809;28;20185;-86
2023/05/09 10:49:45;;;;;;;21.58;20.08;;;21.10;46.80;;;;;;5014162;28;20227;-87
2023/05/09 10:52:11;;;;;;;21.00;19.48;;;21.20;46.60;;;;;;5013930;28;20205;-87
2023/05/09 10:54:37;;;;;;;22.00;20.40;;;21.20;45.20;;;;;;5014792;28;20240;-87
2023/05/09 10:57:04;;;;;;;20.50;19.00;;;21.20;46.30;;;;;;5015300;28;20261;-86
2023/05/09 10:59:39;;;;;;;20.95;19.60;;;21.30;46.40;;;;;;5017052;28;20173;-87
2023/05/09 11:02:10;;;;;;;18.65;16.77;;;21.50;45.80;;;;;;5014955;28;20666;-87
2023/05/09 11:04:38;;;;;;;17.08;15.88;;;21.70;46.00;;;;;;5014330;28;20631;-87
2023/05/09 11:07:21;;;;;;;17.10;15.73;;;21.80;45.10;;;;;;5016985;28;20592;-87
2023/05/09 11:09:51;;;;;;;18.63;16.88;;;21.70;45.00;;;;;;5014596;28;20642;-87
2023/05/09 11:12:22;;;;;;;17.25;15.60;;;21.80;44.40;;;;;;5016458;28;20277;-87
2023/05/09 11:14:50;;;;;;;17.33;16.02;;;21.90;43.20;;;;;;5014430;28;20162;-87
2023/05/09 11:17:25;;;;;;;18.20;16.58;;;22.10;46.20;;;;;;5016267;28;20176;-87
2023/05/09 11:19:50;;;;;;;17.58;16.13;;;22.20;42.60;;;;;;5013855;28;20175;-86
2023/05/09 11:22:19;;;;;;;17.80;16.10;;;22.30;43.00;;;;;;5016278;28;20169;-87
2023/05/09 11:24:50;;;;;;;17.92;16.40;;;22.10;42.50;;;;;;5015417;28;20187;-87
2023/05/09 11:27:23;;;;;;;17.40;16.10;;;22.00;42.40;;;;;;5017452;28;20614;-87
2023/05/09 11:29:55;;;;;;;17.55;16.25;;;22.00;42.80;;;;;;5014774;28;20531;-86
2023/05/09 11:32:26;;;;;;;18.25;16.35;;;22.10;42.70;;;;;;5014372;28;20259;-87
2023/05/09 11:35:03;;;;;;;21.42;19.88;;;22.20;44.00;;;;;;5017645;28;20185;-87
2023/05/09 11:37:31;;;;;;;21.70;20.20;;;22.10;43.80;;;;;;5019617;28;20756;-87
2023/05/09 11:39:58;;;;;;;22.15;20.65;;;22.20;42.80;;;;;;5018090;28;20177;-86
2023/05/09 11:42:27;;;;;;;22.65;21.05;;;22.20;43.50;;;;;;5017269;28;20177;-87
2023/05/09 11:44:52;;;;;;;22.67;20.60;;;22.00;43.60;;;;;;5018952;28;20675;-87
2023/05/09 11:47:20;;;;;;;21.83;20.10;;;22.00;43.70;;;;;;5016506;28;20192;-87
2023/05/09 11:49:47;;;;;;;21.40;20.00;;;22.20;43.60;;;;;;5016570;28;20701;-87
2023/05/09 11:52:13;;;;;;;21.73;19.88;;;22.10;42.50;;;;;;5018125;28;20201;-87
2023/05/09 11:54:39;;;;;;;20.33;18.85;;;22.10;41.20;;;;;;5016048;28;20169;-87
2023/05/09 11:57:05;;;;;;;20.80;18.98;;;22.10;42.90;;;;;;5015006;28;20181;-87
2023/05/09 11:59:32;;;;;;;22.02;20.48;;;22.20;43.60;;;;;;5014909;28;20569;-87
2023/05/09 12:02:05;;;;;;;18.75;17.38;;;22.40;42.30;;;;;;5015320;28;20671;-87
2023/05/09 12:04:31;;;;;;;19.25;16.60;;;22.50;43.90;;;;;;5015451;28;20619;-87
2023/05/09 12:07:00;;;;;;;17.65;16.35;;;22.70;45.00;;;;;;5016671;28;20173;-87
2023/05/09 12:09:34;;;;;;;18.20;16.80;;;22.60;44.20;;;;;;5015362;28;20531;-87
2023/05/09 12:12:00;;;;;;;30.02;16.95;;;22.50;42.60;;;;;;5016408;28;20205;-87
2023/05/09 12:14:27;;;;;;;17.40;16.13;;;22.40;42.10;;;;;;5016514;28;20602;-87
2023/05/09 12:16:53;;;;;;;17.60;15.88;;;22.40;41.80;;;;;;5016174;28;20201;-87
2023/05/09 12:19:18;;;;;;;17.55;16.15;;;22.10;41.20;;;;;;5018217;28;20176;-87
2023/05/09 12:21:44;;;;;;;16.90;15.70;;;22.10;43.10;;;;;;5016853;28;20684;-87
2023/05/09 12:24:09;;;;;;;17.10;15.85;;;22.20;41.20;;;;;;5015236;28;20287;-87
2023/05/09 12:26:35;;;;;;;18.17;16.48;;;22.20;39.60;;;;;;5013941;28;20176;-87
2023/05/09 12:29:01;;;;;;;17.67;16.23;;;22.30;41.00;;;;;;5015997;28;20280;-87